createdAt,value
2019-01-08T00:00:21.981Z,96.88
2019-01-08T00:03:29.114Z,96.64
2019-01-08T00:06:36.355Z,96.90
2019-01-08T00:09:43.326Z,97.32
2019-01-08T00:12:50.296Z,96.97
2019-01-08T00:15:57.271Z,97.17
2019-01-08T00:19:04.224Z,96.91
2019-01-08T00:22:11.251Z,96.49
2019-01-08T00:25:18.190Z,96.00
2019-01-08T00:28:25.165Z,95.67
2019-01-08T00:31:34.139Z,96.39
2019-01-08T00:34:40.800Z,96.37
2019-01-08T00:37:47.762Z,96.88
2019-01-08T00:40:54.721Z,97.07
2019-01-08T00:44:01.667Z,96.66
2019-01-08T00:47:08.648Z,96.60
2019-01-08T00:50:15.924Z,96.43
2019-01-08T00:53:22.881Z,96.77
2019-01-08T00:56:29.831Z,96.29
2019-01-08T00:59:37.097Z,96.44
2019-01-08T01:02:44.078Z,96.93
2019-01-08T01:05:51.106Z,96.77
2019-01-08T01:08:58.047Z,97.03
2019-01-08T01:12:05.027Z,97.53
2019-01-08T01:15:11.976Z,97.70
2019-01-08T01:18:18.925Z,98.16
2019-01-08T01:21:25.894Z,98.14
2019-01-08T01:24:34.708Z,97.80
2019-01-08T01:27:41.650Z,98.30
2019-01-08T01:30:48.626Z,97.99
2019-01-08T01:33:55.562Z,97.74
2019-01-08T01:37:02.522Z,97.90
2019-01-08T01:40:09.629Z,97.57
2019-01-08T01:43:16.663Z,97.54
2019-01-08T01:46:23.617Z,98.64
2019-01-08T01:49:30.740Z,97.70
2019-01-08T01:52:38.782Z,97.10
2019-01-08T01:55:45.765Z,97.56
2019-01-08T01:58:52.744Z,97.40
2019-01-08T02:01:59.786Z,97.64
2019-01-08T02:05:06.840Z,97.62
2019-01-08T02:08:13.907Z,96.71
2019-01-08T02:11:20.823Z,96.77
2019-01-08T02:14:27.842Z,96.94
2019-01-08T02:17:37.628Z,97.28
2019-01-08T02:20:44.621Z,97.33
2019-01-08T02:23:51.551Z,97.32
2019-01-08T02:26:58.564Z,97.71
2019-01-08T02:30:05.935Z,97.97
2019-01-08T02:33:13.014Z,97.42
2019-01-08T02:36:19.995Z,98.13
2019-01-08T02:39:26.944Z,98.12
2019-01-08T02:42:34.383Z,98.15
2019-01-08T02:45:41.413Z,98.10
2019-01-08T02:48:48.343Z,98.68
2019-01-08T02:51:55.319Z,98.96
2019-01-08T02:55:02.742Z,98.61
2019-01-08T02:58:09.756Z,98.82
2019-01-08T03:01:16.773Z,98.92
2019-01-08T03:04:23.766Z,98.93
2019-01-08T03:07:30.760Z,98.41
2019-01-08T03:10:39.373Z,98.45
2019-01-08T03:13:46.334Z,98.41
2019-01-08T03:16:53.348Z,98.43
2019-01-08T03:20:00.285Z,97.97
2019-01-08T03:23:07.315Z,98.06
2019-01-08T03:26:14.248Z,97.73
2019-01-08T03:29:21.246Z,98.39
2019-01-08T03:32:28.232Z,98.40
2019-01-08T03:35:35.669Z,98.15
2019-01-08T03:38:42.611Z,98.30
2019-01-08T03:41:49.705Z,98.31
2019-01-08T03:44:56.669Z,97.58
2019-01-08T03:48:03.667Z,97.69
2019-01-08T03:51:10.649Z,97.24
2019-01-08T03:54:17.630Z,97.04
2019-01-08T03:57:25.075Z,96.98
2019-01-08T04:00:34.408Z,96.12
2019-01-08T04:03:41.442Z,95.99
2019-01-08T04:06:48.442Z,95.76
2019-01-08T04:09:55.425Z,96.54
2019-01-08T04:13:02.401Z,96.55
2019-01-08T04:16:09.394Z,96.42
2019-01-08T04:19:16.409Z,95.98
2019-01-08T04:22:23.383Z,96.37
2019-01-08T04:25:30.378Z,95.80
2019-01-08T04:28:37.377Z,96.11
2019-01-08T04:31:44.338Z,96.32
2019-01-08T04:34:51.292Z,96.34
2019-01-08T04:37:58.291Z,96.44
2019-01-08T04:41:05.253Z,95.90
2019-01-08T04:44:12.206Z,96.27
2019-01-08T04:47:19.150Z,96.76
2019-01-08T04:50:26.153Z,97.15
2019-01-08T04:53:34.380Z,97.21
2019-01-08T04:56:41.370Z,97.35
2019-01-08T04:59:48.554Z,97.26
2019-01-08T05:02:55.515Z,97.79
2019-01-08T05:06:02.759Z,97.79
2019-01-08T05:09:09.745Z,97.84
2019-01-08T05:12:16.703Z,98.28
2019-01-08T05:15:23.691Z,98.28
2019-01-08T05:18:30.651Z,98.45
2019-01-08T05:21:39.272Z,98.13
2019-01-08T05:24:47.757Z,98.61
2019-01-08T05:27:54.754Z,98.71
2019-01-08T05:31:01.708Z,98.75
2019-01-08T05:34:08.702Z,98.37
2019-01-08T05:37:15.632Z,98.29
2019-01-08T05:40:22.621Z,97.81
2019-01-08T05:43:29.555Z,98.03
2019-01-08T05:46:37.227Z,98.29
2019-01-08T05:49:44.170Z,98.42
2019-01-08T05:52:51.142Z,98.69
2019-01-08T05:55:58.100Z,98.68
2019-01-08T05:59:05.070Z,98.69
2019-01-08T06:02:13.116Z,98.51
2019-01-08T06:05:20.096Z,98.79
2019-01-08T06:08:27.031Z,98.28
2019-01-08T06:11:37.144Z,98.75
2019-01-08T06:14:44.123Z,98.26
2019-01-08T06:17:51.093Z,98.31
2019-01-08T06:20:58.258Z,98.42
2019-01-08T06:24:05.255Z,98.00
2019-01-08T06:27:12.203Z,98.00
2019-01-08T06:30:24.732Z,97.71
2019-01-08T06:33:27.874Z,98.08
2019-01-08T06:36:37.812Z,98.11
2019-01-08T06:39:44.756Z,97.63
2019-01-08T06:42:51.842Z,97.63
2019-01-08T06:45:59.913Z,97.48
2019-01-08T06:49:07.004Z,97.30
2019-01-08T06:52:14.020Z,97.16
2019-01-08T06:55:20.985Z,96.93
2019-01-08T06:58:27.935Z,97.18
2019-01-08T07:01:34.995Z,97.10
2019-01-08T07:04:42.097Z,96.33
2019-01-08T07:07:49.148Z,96.45
2019-01-08T07:10:56.064Z,96.61
2019-01-08T07:14:03.036Z,96.06
2019-01-08T07:17:10.033Z,95.91
2019-01-08T07:20:17.021Z,94.96
2019-01-08T07:23:25.034Z,95.08
2019-01-08T07:26:33.226Z,95.64
2019-01-08T07:29:40.141Z,95.12
2019-01-08T07:32:47.123Z,95.34
2019-01-08T07:35:54.245Z,94.93
2019-01-08T07:39:01.294Z,95.26
2019-01-08T07:42:08.278Z,94.67
2019-01-08T07:45:15.250Z,94.64
2019-01-08T07:48:22.435Z,94.69
2019-01-08T07:51:29.391Z,95.36
2019-01-08T07:54:37.086Z,95.43
2019-01-08T07:57:44.124Z,94.93
2019-01-08T08:00:51.070Z,94.83
2019-01-08T08:03:58.044Z,94.82
2019-01-08T08:07:05.333Z,94.73
2019-01-08T08:10:12.341Z,95.19
2019-01-08T08:13:19.568Z,94.63
2019-01-08T08:16:26.535Z,94.67
2019-01-08T08:19:34.369Z,95.05
2019-01-08T08:22:41.355Z,94.23
2019-01-08T08:25:48.361Z,94.81
2019-01-08T08:28:55.316Z,95.18
2019-01-08T08:32:02.231Z,95.76
2019-01-08T08:35:09.245Z,95.47
2019-01-08T08:38:16.166Z,95.90
2019-01-08T08:41:24.753Z,95.83
2019-01-08T08:44:31.710Z,96.00
2019-01-08T08:47:38.900Z,96.17
2019-01-08T08:50:45.851Z,96.11
2019-01-08T08:53:52.986Z,95.65
2019-01-08T08:57:00.057Z,94.53
2019-01-08T09:00:08.511Z,95.19
2019-01-08T09:03:15.442Z,95.10
2019-01-08T09:06:22.429Z,95.55
2019-01-08T09:09:29.995Z,95.26
2019-01-08T09:12:36.979Z,95.13
2019-01-08T09:15:43.940Z,95.68
2019-01-08T09:18:50.911Z,96.06
2019-01-08T09:21:58.307Z,96.21
2019-01-08T09:25:05.459Z,96.32
2019-01-08T09:28:12.430Z,96.87
2019-01-08T09:31:19.578Z,97.24
2019-01-08T09:34:26.587Z,98.25
2019-01-08T09:37:33.927Z,98.76
2019-01-08T09:40:40.848Z,98.96
2019-01-08T09:43:47.857Z,99.30
2019-01-08T09:46:54.780Z,99.09
2019-01-08T09:50:01.863Z,99.21
2019-01-08T09:53:08.817Z,99.28
2019-01-08T09:56:15.897Z,99.07
2019-01-08T09:59:22.858Z,99.23
2019-01-08T10:02:29.992Z,99.73
2019-01-08T10:05:37.026Z,99.91
2019-01-08T10:08:44.055Z,99.63
2019-01-08T10:11:51.194Z,99.64
2019-01-08T10:14:59.104Z,100.00
2019-01-08T10:18:06.049Z,99.50
2019-01-08T10:21:13.262Z,99.80
2019-01-08T10:24:20.605Z,99.10
2019-01-08T10:27:27.652Z,98.06
2019-01-08T10:30:37.432Z,96.82
2019-01-08T10:33:44.455Z,97.30
2019-01-08T10:36:51.689Z,97.57
2019-01-08T10:40:01.402Z,96.67
2019-01-08T10:43:08.146Z,97.45
2019-01-08T10:46:15.139Z,97.97
2019-01-08T10:49:23.670Z,97.78
2019-01-08T10:52:32.849Z,96.99
2019-01-08T10:55:39.873Z,96.66
2019-01-08T10:58:46.865Z,96.04
2019-01-08T11:01:53.784Z,96.42
2019-01-08T11:05:00.787Z,96.06
2019-01-08T11:08:10.443Z,96.27
2019-01-08T12:28:43.910Z,96.69
2019-01-08T12:31:49.437Z,97.03
2019-01-08T12:34:55.010Z,97.69
2019-01-08T12:38:01.897Z,97.68
2019-01-08T12:41:08.907Z,98.68
2019-01-08T12:44:15.555Z,98.54
2019-01-08T12:47:23.114Z,98.44
2019-01-08T12:50:30.281Z,98.71
2019-01-08T12:53:37.283Z,98.49
2019-01-08T12:56:44.190Z,98.61
2019-01-08T12:59:51.371Z,99.07
2019-01-08T13:02:58.305Z,99.13
2019-01-08T13:06:05.974Z,98.92
2019-01-08T13:09:12.844Z,98.85
2019-01-08T13:12:20.655Z,99.07
2019-01-08T13:15:27.346Z,99.03
2019-01-08T13:18:34.498Z,99.70
2019-01-08T13:21:41.398Z,99.78
2019-01-08T13:24:48.667Z,99.62
2019-01-08T13:27:55.390Z,99.85
2019-01-08T13:31:02.426Z,99.86
2019-01-08T13:34:09.429Z,99.28
2019-01-08T13:37:16.377Z,99.17
2019-01-08T13:40:23.394Z,99.19
2019-01-08T13:43:30.370Z,99.41
2019-01-08T13:46:37.844Z,99.10
2019-01-08T13:49:46.557Z,99.52
2019-01-08T13:52:53.426Z,99.43
2019-01-08T13:56:00.429Z,99.52
2019-01-08T13:59:07.342Z,99.55
2019-01-08T14:02:14.293Z,99.74
2019-01-08T14:05:22.252Z,99.51
2019-01-08T14:08:29.244Z,99.53
2019-01-08T14:11:37.103Z,99.93
2019-01-08T14:14:45.357Z,99.55
2019-01-08T14:17:52.558Z,100.00
2019-01-08T14:20:59.550Z,99.43
2019-01-08T14:24:06.528Z,99.10
2019-01-08T14:27:14.026Z,99.02
2019-01-08T14:30:20.751Z,99.21
2019-01-08T14:33:28.701Z,99.22
2019-01-08T14:36:36.380Z,98.72
2019-01-08T14:39:43.430Z,98.65
2019-01-08T14:42:50.341Z,98.64
2019-01-08T14:45:57.612Z,99.20
2019-01-08T14:49:04.325Z,98.41
2019-01-08T14:52:11.300Z,98.73
2019-01-08T14:55:18.207Z,97.74
2019-01-08T14:58:42.805Z,97.76
2019-01-08T15:01:51.970Z,98.18
2019-01-08T15:04:59.455Z,98.06
